Time;durP1;ratioP1;P1;durP2;ratioP2;P2;SDS_P1;SDS_P2;PMS_P1;PMS_P2;Temp;Humidity;BMP_temperature;BMP_pressure;BME280_temperature;BME280_humidity;BME280_pressure;Samples;Min_cycle;Max_cycle;Signal;HPM_P1;HPM_P2
2022/10/22 00:01:42;;;;;;;12.80;9.23;;;13.50;99.90;;;;;;5064493;28;20044;-75
2022/10/22 00:04:08;;;;;;;10.48;8.95;;;13.50;99.90;;;;;;5046232;28;20102;-74
2022/10/22 00:06:34;;;;;;;11.75;8.98;;;13.50;99.90;;;;;;5042820;28;20075;-73
2022/10/22 00:08:59;;;;;;;12.63;9.45;;;13.50;99.90;;;;;;5064458;28;20720;-74
2022/10/22 00:11:26;;;;;;;13.10;9.10;;;13.50;99.90;;;;;;5043933;28;20111;-75
2022/10/22 00:13:51;;;;;;;10.18;8.85;;;13.50;99.90;;;;;;5039392;28;20051;-74
2022/10/22 00:16:17;;;;;;;13.88;9.05;;;13.50;99.90;;;;;;5064522;28;20435;-75
2022/10/22 00:18:42;;;;;;;15.43;8.57;;;13.50;99.90;;;;;;5065758;28;20040;-75
2022/10/22 00:21:08;;;;;;;10.45;8.35;;;13.50;99.90;;;;;;5064622;28;20041;-74
2022/10/22 00:23:34;;;;;;;12.27;8.35;;;13.50;99.90;;;;;;5042821;28;20059;-74
2022/10/22 00:26:00;;;;;;;13.02;9.02;;;13.50;99.90;;;;;;5048178;28;20037;-73
2022/10/22 00:28:25;;;;;;;11.85;8.57;;;13.60;99.90;;;;;;5044756;28;20040;-76
2022/10/22 00:30:56;;;;;;;11.23;8.85;;;13.50;99.90;;;;;;5043695;28;20044;-74
2022/10/22 00:33:22;;;;;;;10.10;8.63;;;13.50;99.90;;;;;;5062552;28;20147;-74
2022/10/22 00:35:48;;;;;;;10.55;8.77;;;13.50;99.90;;;;;;5059653;28;20115;-75
2022/10/22 00:38:13;;;;;;;13.38;8.88;;;13.50;99.90;;;;;;5063854;28;20496;-76
2022/10/22 00:40:39;;;;;;;11.55;9.20;;;13.50;99.90;;;;;;5065184;28;20040;-76
2022/10/22 00:43:05;;;;;;;12.70;9.23;;;13.50;99.90;;;;;;5058517;28;20380;-75
2022/10/22 00:45:30;;;;;;;10.88;9.45;;;13.50;99.90;;;;;;5061669;28;20042;-75
2022/10/22 00:48:04;;;;;;;12.75;8.88;;;13.50;99.90;;;;;;5047410;28;20070;-75
2022/10/22 00:50:43;;;;;;;13.70;8.82;;;13.50;99.90;;;;;;5046710;28;20055;-75
2022/10/22 00:53:18;;;;;;;10.68;8.57;;;13.50;99.90;;;;;;5042935;28;20056;-75
2022/10/22 00:55:46;;;;;;;11.77;8.85;;;13.50;99.90;;;;;;5062736;28;20044;-75
2022/10/22 00:58:12;;;;;;;13.05;8.70;;;13.50;99.90;;;;;;5066426;28;20071;-75
2022/10/22 01:00:38;;;;;;;11.82;8.63;;;13.50;99.90;;;;;;5044598;28;20032;-76
2022/10/22 01:03:04;;;;;;;9.95;8.48;;;13.40;99.90;;;;;;5041116;28;20076;-75
2022/10/22 01:05:38;;;;;;;12.30;8.20;;;13.50;99.90;;;;;;5058499;28;20040;-75
2022/10/22 01:08:08;;;;;;;11.77;8.02;;;13.50;99.90;;;;;;5056689;28;20044;-75
2022/10/22 01:10:49;;;;;;;12.80;8.65;;;13.50;99.90;;;;;;5059944;28;20044;-74
2022/10/22 01:13:43;;;;;;;14.95;8.13;;;13.50;99.90;;;;;;5041050;28;20064;-75
2022/10/22 01:16:20;;;;;;;11.15;8.07;;;13.50;99.90;;;;;;5044083;28;20052;-74
2022/10/22 01:19:07;;;;;;;13.25;7.78;;;13.50;99.90;;;;;;5044566;28;20099;-74
2022/10/22 01:21:53;;;;;;;;;;;13.50;99.90;;;;;;5041952;28;20066;-74
2022/10/22 01:24:35;;;;;;;11.07;7.85;;;13.40;99.90;;;;;;5037232;28;19920;-74
2022/10/22 01:27:33;;;;;;;12.30;7.93;;;13.50;99.90;;;;;;5062861;28;20056;-74
2022/10/22 01:30:05;;;;;;;12.55;7.03;;;13.50;99.90;;;;;;5046163;28;20044;-74
2022/10/22 01:32:39;;;;;;;10.80;7.53;;;13.40;99.90;;;;;;5037059;28;20063;-74
2022/10/22 01:35:10;;;;;;;11.80;7.15;;;13.40;99.90;;;;;;5065775;28;20557;-74
2022/10/22 01:37:47;;;;;;;10.82;7.05;;;13.40;99.90;;;;;;5041815;28;20045;-74
2022/10/22 01:40:15;;;;;;;11.95;6.80;;;13.40;99.90;;;;;;5049703;28;20124;-74
2022/10/22 01:42:40;;;;;;;8.70;6.60;;;13.40;99.90;;;;;;5045170;28;20040;-73
2022/10/22 01:45:13;;;;;;;9.48;6.78;;;13.40;99.90;;;;;;5064777;28;20380;-72
2022/10/22 01:48:11;;;;;;;8.50;6.57;;;13.30;99.90;;;;;;5065206;28;20044;-75
2022/10/22 01:51:14;;;;;;;11.52;6.90;;;13.30;99.90;;;;;;5006910;28;20134;-75
2022/10/22 01:53:44;;;;;;;10.88;6.45;;;13.20;99.90;;;;;;5045320;28;20097;-75
2022/10/22 01:56:22;;;;;;;10.95;6.63;;;13.10;99.90;;;;;;5050229;28;20045;-74
2022/10/22 01:59:05;;;;;;;8.57;6.30;;;13.20;99.90;;;;;;5045686;28;20045;-75
2022/10/22 02:01:52;;;;;;;9.73;7.03;;;13.10;99.90;;;;;;5065683;28;20044;-75
2022/10/22 02:04:43;;;;;;;8.52;6.95;;;13.10;99.90;;;;;;5067528;28;20484;-75
2022/10/22 02:07:12;;;;;;;8.00;6.90;;;13.10;99.90;;;;;;5048461;28;20144;-75
2022/10/22 02:09:40;;;;;;;12.63;6.97;;;13.00;99.90;;;;;;5051370;28;20045;-75
2022/10/22 02:12:06;;;;;;;;;;;13.00;99.90;;;;;;5068678;28;20094;-75
2022/10/22 02:14:36;;;;;;;10.30;7.20;;;12.90;99.90;;;;;;5065026;28;19945;-75
2022/10/22 02:17:03;;;;;;;11.50;7.30;;;12.80;99.90;;;;;;5062775;28;20536;-75
2022/10/22 02:19:37;;;;;;;12.30;8.20;;;12.80;99.90;;;;;;5043514;28;20112;-75
2022/10/22 02:22:03;;;;;;;10.95;7.70;;;12.80;99.90;;;;;;5048657;28;20052;-75
2022/10/22 02:24:30;;;;;;;12.77;8.55;;;12.80;99.90;;;;;;5062919;28;20045;-74
2022/10/22 02:27:20;;;;;;;11.80;8.02;;;12.80;99.90;;;;;;5062881;28;20576;-74
2022/10/22 02:29:57;;;;;;;14.00;8.27;;;12.90;99.90;;;;;;5065376;28;20422;-75
2022/10/22 02:32:27;;;;;;;12.05;8.55;;;12.90;99.90;;;;;;5048084;28;20083;-75
2022/10/22 02:34:54;;;;;;;11.85;8.77;;;12.90;99.90;;;;;;5045525;28;20113;-75
2022/10/22 02:37:20;;;;;;;14.00;8.63;;;12.80;99.90;;;;;;5062569;28;20407;-75
2022/10/22 02:39:47;;;;;;;12.45;8.90;;;12.80;99.90;;;;;;5046243;28;20076;-75
2022/10/22 02:42:13;;;;;;;12.48;9.43;;;12.80;99.90;;;;;;5047390;28;20072;-75
2022/10/22 02:44:39;;;;;;;14.43;10.18;;;12.90;99.90;;;;;;5035025;28;20709;-73
2022/10/22 02:47:05;;;;;;;14.90;10.13;;;12.90;99.90;;;;;;5065404;28;20049;-75
2022/10/22 02:49:30;;;;;;;12.73;9.40;;;12.80;99.90;;;;;;5067488;28;20040;-75
2022/10/22 02:51:56;;;;;;;16.45;10.70;;;12.90;99.90;;;;;;5064901;28;20045;-75
2022/10/22 02:54:21;;;;;;;12.48;10.00;;;12.80;99.90;;;;;;5049254;28;20040;-74
2022/10/22 02:56:47;;;;;;;13.27;10.05;;;12.80;99.90;;;;;;5063467;28;20045;-74
2022/10/22 02:59:13;;;;;;;14.85;10.75;;;12.80;99.90;;;;;;5065915;28;20123;-75
2022/10/22 03:01:38;;;;;;;13.65;9.65;;;12.80;99.90;;;;;;5046779;28;20113;-74
2022/10/22 03:04:04;;;;;;;16.85;11.65;;;12.80;99.90;;;;;;5063730;28;20040;-75
2022/10/22 03:06:30;;;;;;;17.90;10.95;;;12.90;99.90;;;;;;5065907;28;20056;-74
2022/10/22 03:08:55;;;;;;;13.57;11.73;;;12.90;99.90;;;;;;5062416;28;20037;-74
2022/10/22 03:11:21;;;;;;;12.48;10.65;;;12.80;99.90;;;;;;5066008;28;20036;-74
2022/10/22 03:13:47;;;;;;;13.73;10.73;;;12.80;99.90;;;;;;5045718;28;20055;-74
2022/10/22 03:16:12;;;;;;;13.60;11.18;;;12.80;99.90;;;;;;5064513;28;20048;-74
2022/10/22 03:18:38;;;;;;;14.68;11.15;;;12.80;99.90;;;;;;5064493;28;20032;-75
2022/10/22 03:21:19;;;;;;;16.17;10.60;;;12.80;99.90;;;;;;5047046;28;20729;-74
2022/10/22 03:23:46;;;;;;;13.75;11.07;;;12.80;99.90;;;;;;5039857;28;20073;-74
2022/10/22 03:26:13;;;;;;;15.55;11.70;;;12.80;99.90;;;;;;5067124;28;20059;-74
2022/10/22 03:28:40;;;;;;;15.55;11.88;;;12.80;99.90;;;;;;5064459;28;20131;-75
2022/10/22 03:31:05;;;;;;;17.20;12.68;;;12.70;99.90;;;;;;5065993;28;20064;-74
2022/10/22 03:33:31;;;;;;;16.48;12.05;;;12.70;99.90;;;;;;5046319;28;20118;-74
2022/10/22 03:35:57;;;;;;;17.35;12.52;;;12.70;99.90;;;;;;5062243;28;21781;-74
2022/10/22 03:38:23;;;;;;;15.95;12.00;;;12.70;99.90;;;;;;5046265;28;20071;-74
2022/10/22 03:40:49;;;;;;;15.73;12.85;;;12.80;99.90;;;;;;5046644;28;20113;-74
2022/10/22 03:43:16;;;;;;;17.10;12.27;;;12.70;99.90;;;;;;5046359;28;20056;-74
2022/10/22 03:45:41;;;;;;;17.27;12.55;;;12.80;99.90;;;;;;5047347;28;20044;-74
2022/10/22 03:48:07;;;;;;;14.77;12.50;;;12.80;99.90;;;;;;5066257;28;20045;-73
2022/10/22 03:50:33;;;;;;;15.45;12.27;;;12.70;99.90;;;;;;5063341;28;20037;-74
2022/10/22 03:52:58;;;;;;;17.75;13.18;;;12.70;99.90;;;;;;5045500;28;20408;-75
2022/10/22 03:55:24;;;;;;;16.45;12.32;;;12.70;99.90;;;;;;5047357;28;20041;-74
2022/10/22 03:57:50;;;;;;;17.08;13.38;;;12.60;99.90;;;;;;5047491;28;20040;-74
2022/10/22 04:00:16;;;;;;;16.88;12.45;;;12.70;99.90;;;;;;5062087;28;20037;-74
2022/10/22 04:02:42;;;;;;;15.70;12.82;;;12.70;99.90;;;;;;5062718;28;20115;-74
2022/10/22 04:05:07;;;;;;;21.13;13.93;;;12.70;99.90;;;;;;5062992;28;20115;-74
2022/10/22 04:07:33;;;;;;;16.27;12.68;;;12.70;99.90;;;;;;5041674;28;20072;-74
2022/10/22 04:09:59;;;;;;;17.85;12.70;;;12.70;99.90;;;;;;5044993;28;20031;-73
2022/10/22 04:12:25;;;;;;;18.08;14.00;;;12.70;99.90;;;;;;5046838;28;20106;-74
2022/10/22 04:14:50;;;;;;;18.15;13.93;;;12.70;99.90;;;;;;5062038;28;20087;-74
2022/10/22 04:17:16;;;;;;;17.20;12.50;;;12.60;99.90;;;;;;5066335;28;20098;-74
2022/10/22 04:19:42;;;;;;;19.45;12.35;;;12.60;99.90;;;;;;5062502;28;20029;-74
2022/10/22 04:22:08;;;;;;;18.95;13.27;;;12.60;99.90;;;;;;5044725;28;20060;-76
2022/10/22 04:24:33;;;;;;;16.02;13.07;;;12.60;99.90;;;;;;5044749;28;20047;-75
2022/10/22 04:26:59;;;;;;;16.15;12.82;;;12.60;99.90;;;;;;5065544;28;20131;-75
2022/10/22 04:29:25;;;;;;;16.08;13.23;;;12.50;99.90;;;;;;5065814;28;20084;-76
2022/10/22 04:31:51;;;;;;;18.58;13.68;;;12.50;99.90;;;;;;5065348;28;20438;-75
2022/10/22 04:34:16;;;;;;;16.05;12.88;;;12.50;99.90;;;;;;5058041;28;20029;-75
2022/10/22 04:36:42;;;;;;;15.75;13.23;;;12.50;99.90;;;;;;5062801;28;20047;-75
2022/10/22 04:39:07;;;;;;;20.45;13.65;;;12.50;99.90;;;;;;5047107;28;20383;-75
2022/10/22 04:41:38;;;;;;;18.42;13.32;;;12.50;99.90;;;;;;5043853;28;20530;-75
2022/10/22 04:44:04;;;;;;;16.70;13.73;;;12.50;99.90;;;;;;5062336;28;20064;-75
2022/10/22 04:46:33;;;;;;;20.47;14.47;;;12.50;99.90;;;;;;5046664;28;20180;-75
2022/10/22 04:48:59;;;;;;;16.27;13.43;;;12.50;99.90;;;;;;5046278;28;20299;-75
2022/10/22 04:51:26;;;;;;;20.35;14.93;;;12.50;99.90;;;;;;5045540;28;20048;-75
2022/10/22 04:53:52;;;;;;;18.67;13.80;;;12.40;99.90;;;;;;5041013;28;20052;-76
2022/10/22 04:56:21;;;;;;;16.95;13.88;;;12.40;99.90;;;;;;5061854;28;20041;-72
2022/10/22 04:58:48;;;;;;;20.75;14.25;;;12.40;99.90;;;;;;5048110;28;20111;-76
2022/10/22 05:01:21;;;;;;;17.58;13.57;;;12.40;99.90;;;;;;5060019;28;20045;-75
2022/10/22 05:03:48;;;;;;;20.05;14.00;;;12.40;99.90;;;;;;5043041;28;20036;-75
2022/10/22 05:06:14;;;;;;;16.92;14.65;;;12.40;99.90;;;;;;5064471;28;20037;-75
2022/10/22 05:08:40;;;;;;;19.13;14.25;;;12.40;99.90;;;;;;5042423;28;20056;-76
2022/10/22 05:11:10;;;;;;;18.15;13.23;;;12.30;99.90;;;;;;5063177;28;20032;-75
2022/10/22 05:13:36;;;;;;;21.42;14.80;;;12.40;99.90;;;;;;5046552;28;20501;-75
2022/10/22 05:16:02;;;;;;;20.58;14.57;;;12.50;99.90;;;;;;5065612;28;20127;-75
2022/10/22 05:18:27;;;;;;;17.63;14.20;;;12.40;99.90;;;;;;5067696;28;20045;-75
2022/10/22 05:20:53;;;;;;;17.10;13.98;;;12.40;99.90;;;;;;5047271;28;20139;-75
2022/10/22 05:23:19;;;;;;;20.50;14.50;;;12.40;99.90;;;;;;5066121;28;20526;-75
2022/10/22 05:25:44;;;;;;;22.27;14.70;;;12.40;99.90;;;;;;5066811;28;20111;-76
2022/10/22 05:28:10;;;;;;;19.90;14.55;;;12.40;99.90;;;;;;5050351;28;20116;-76
2022/10/22 05:30:35;;;;;;;20.00;14.30;;;12.40;99.90;;;;;;5062950;28;20043;-74
2022/10/22 05:33:01;;;;;;;20.60;14.98;;;12.30;99.90;;;;;;5061523;28;20048;-75
2022/10/22 05:35:27;;;;;;;23.83;20.75;;;12.30;99.90;;;;;;5065655;28;20393;-76
2022/10/22 05:37:53;;;;;;;26.13;23.40;;;12.30;99.90;;;;;;5059243;28;20185;-75
2022/10/22 05:40:19;;;;;;;24.23;19.20;;;12.30;99.90;;;;;;5066956;28;20526;-75
2022/10/22 05:42:44;;;;;;;83.82;66.45;;;12.30;99.90;;;;;;5062521;28;20045;-73
2022/10/22 05:45:10;;;;;;;72.60;55.30;;;12.30;99.90;;;;;;5047506;28;20036;-77
2022/10/22 05:47:39;;;;;;;104.10;89.78;;;12.30;99.90;;;;;;5067925;28;20524;-75
2022/10/22 05:50:05;;;;;;;56.58;49.47;;;12.30;99.90;;;;;;5066392;28;20036;-75
2022/10/22 05:52:31;;;;;;;54.15;47.13;;;12.40;99.90;;;;;;5064714;28;20136;-75
2022/10/22 05:54:57;;;;;;;38.63;33.55;;;12.40;99.90;;;;;;5063799;28;20151;-74
2022/10/22 05:57:23;;;;;;;26.10;23.45;;;12.40;99.90;;;;;;5063259;28;20137;-75
2022/10/22 05:59:48;;;;;;;18.00;16.15;;;12.40;99.90;;;;;;5060618;28;20048;-73
2022/10/22 06:02:14;;;;;;;19.85;15.07;;;12.40;99.90;;;;;;5044384;28;20055;-73
2022/10/22 06:04:39;;;;;;;17.05;14.43;;;12.40;99.90;;;;;;5066520;28;20048;-73
2022/10/22 06:07:11;;;;;;;18.95;15.18;;;12.40;99.90;;;;;;5042822;28;20112;-74
2022/10/22 06:09:37;;;;;;;21.02;16.80;;;12.40;99.90;;;;;;5067222;28;20088;-75
2022/10/22 06:12:07;;;;;;;17.70;13.52;;;12.40;99.90;;;;;;5040228;28;20055;-74
2022/10/22 06:14:33;;;;;;;20.40;14.45;;;12.40;99.90;;;;;;5035790;28;20155;-74
2022/10/22 06:16:59;;;;;;;17.90;14.55;;;12.40;99.90;;;;;;5024818;28;20455;-74
2022/10/22 06:19:25;;;;;;;17.33;14.10;;;12.40;99.90;;;;;;5046766;28;20057;-75
2022/10/22 06:21:52;;;;;;;20.75;13.98;;;12.40;99.90;;;;;;5042807;28;20050;-74
2022/10/22 06:24:18;;;;;;;19.05;14.05;;;12.40;99.90;;;;;;5026978;28;20049;-73
2022/10/22 06:26:47;;;;;;;19.95;13.52;;;12.40;99.90;;;;;;5026011;28;20056;-73
2022/10/22 06:29:12;;;;;;;18.92;13.95;;;12.40;99.90;;;;;;5028177;28;20045;-74
2022/10/22 06:31:38;;;;;;;19.42;14.15;;;12.40;99.90;;;;;;5043119;28;20052;-73
2022/10/22 06:34:12;;;;;;;17.58;13.20;;;12.30;99.90;;;;;;5047015;28;20672;-74
2022/10/22 06:36:38;;;;;;;15.85;12.70;;;12.40;99.90;;;;;;5027158;28;20037;-75
2022/10/22 06:39:04;;;;;;;20.70;13.60;;;12.40;99.90;;;;;;5027931;28;20048;-74
2022/10/22 06:41:30;;;;;;;19.70;13.55;;;12.40;99.90;;;;;;5041590;28;20045;-75
2022/10/22 06:43:56;;;;;;;22.70;14.32;;;12.40;99.90;;;;;;5025707;28;20060;-75
2022/10/22 06:46:23;;;;;;;20.17;13.87;;;12.40;99.90;;;;;;5025669;28;20102;-75
2022/10/22 06:49:01;;;;;;;18.67;13.67;;;12.40;99.90;;;;;;5041685;28;20307;-74
2022/10/22 06:51:27;;;;;;;25.13;16.00;;;12.60;99.90;;;;;;5028082;28;20056;-75
2022/10/22 06:53:55;;;;;;;24.20;18.15;;;12.50;99.90;;;;;;5023383;28;20052;-75
2022/10/22 06:56:22;;;;;;;;;;;12.50;99.90;;;;;;5028571;28;20045;-75
2022/10/22 06:58:52;;;;;;;20.33;15.80;;;12.50;99.90;;;;;;5040925;28;19921;-74
2022/10/22 07:01:20;;;;;;;23.40;14.38;;;12.50;99.90;;;;;;5018038;28;20478;-81
2022/10/22 07:03:49;;;;;;;19.30;13.45;;;12.60;99.90;;;;;;5042027;28;20052;-78
2022/10/22 07:06:14;;;;;;;18.52;12.93;;;12.60;99.90;;;;;;5040402;28;20033;-78
2022/10/22 07:08:41;;;;;;;19.02;13.25;;;12.70;99.90;;;;;;5039576;28;20059;-79
2022/10/22 07:11:09;;;;;;;18.88;13.18;;;12.70;99.90;;;;;;5042373;28;20053;-78
2022/10/22 07:13:35;;;;;;;17.70;11.95;;;12.70;99.90;;;;;;5021161;28;20078;-80
2022/10/22 07:16:02;;;;;;;21.25;12.07;;;12.80;99.90;;;;;;5060872;28;20547;-82
2022/10/22 07:18:28;;;;;;;19.50;12.45;;;12.90;99.90;;;;;;5061888;28;20480;-84
2022/10/22 07:20:54;;;;;;;19.85;11.27;;;12.90;99.90;;;;;;5066455;28;20044;-83
2022/10/22 07:23:19;;;;;;;19.65;12.02;;;12.90;99.90;;;;;;5066224;28;20040;-83
2022/10/22 07:25:45;;;;;;;19.55;11.32;;;13.00;99.90;;;;;;5078972;28;20063;-87
2022/10/22 07:28:11;;;;;;;19.25;12.40;;;13.10;99.90;;;;;;5073175;28;20047;-88
2022/10/22 07:30:38;;;;;;;20.70;11.40;;;13.10;99.90;;;;;;5062995;28;20036;-84
2022/10/22 07:33:03;;;;;;;19.95;11.30;;;13.30;99.90;;;;;;5061853;28;20491;-86
2022/10/22 07:35:29;;;;;;;20.52;9.88;;;13.20;99.90;;;;;;5048383;28;20040;-85
2022/10/22 07:37:55;;;;;;;17.33;9.70;;;13.30;99.90;;;;;;5045099;28;20053;-81
2022/10/22 07:40:21;;;;;;;16.35;10.18;;;13.40;99.90;;;;;;5065706;28;20488;-80
2022/10/22 07:42:47;;;;;;;20.42;10.45;;;13.50;99.90;;;;;;5059876;28;20044;-85
2022/10/22 07:45:12;;;;;;;16.77;9.82;;;13.60;99.90;;;;;;5067795;28;20051;-85
2022/10/22 07:47:38;;;;;;;18.40;10.18;;;13.70;99.90;;;;;;5068705;28;20857;-81
2022/10/22 07:50:06;;;;;;;18.83;9.57;;;13.70;99.90;;;;;;5049261;28;20527;-86
2022/10/22 07:52:31;;;;;;;;;;;13.80;99.90;;;;;;5066755;28;20725;-79
2022/10/22 07:54:57;;;;;;;21.80;9.43;;;13.90;99.90;;;;;;5067848;28;19927;-81
2022/10/22 07:57:23;;;;;;;18.55;9.68;;;14.00;99.90;;;;;;5065802;28;20037;-78
2022/10/22 07:59:48;;;;;;;16.25;9.57;;;14.00;99.90;;;;;;5064983;28;20048;-87
2022/10/22 08:02:14;;;;;;;18.98;10.15;;;14.10;99.90;;;;;;5063072;28;20407;-86
2022/10/22 08:04:40;;;;;;;17.60;9.32;;;14.10;99.90;;;;;;5062037;28;20041;-82
2022/10/22 08:07:05;;;;;;;33.00;12.20;;;14.10;99.90;;;;;;5047227;28;20519;-82
2022/10/22 08:09:31;;;;;;;17.42;9.68;;;14.20;99.90;;;;;;5065764;28;20033;-82
2022/10/22 08:11:57;;;;;;;21.42;10.05;;;14.10;99.90;;;;;;5066455;28;20128;-82
2022/10/22 08:14:22;;;;;;;43.72;16.90;;;14.30;99.90;;;;;;5048696;28;20067;-82
2022/10/22 08:16:48;;;;;;;29.65;12.77;;;14.20;99.90;;;;;;5066466;28;20041;-80
2022/10/22 08:19:17;;;;;;;14.73;8.70;;;14.30;99.90;;;;;;5066368;28;20075;-83
2022/10/22 08:21:44;;;;;;;17.65;8.93;;;14.20;99.90;;;;;;5048298;28;20082;-87
2022/10/22 08:24:10;;;;;;;15.68;8.65;;;14.30;99.90;;;;;;5066992;28;20037;-83
2022/10/22 08:26:35;;;;;;;14.05;8.48;;;14.30;99.90;;;;;;5046716;28;20044;-82
2022/10/22 08:29:01;;;;;;;19.63;8.80;;;14.30;99.90;;;;;;5064972;28;20029;-79
2022/10/22 08:31:26;;;;;;;16.02;8.82;;;14.30;99.90;;;;;;5067412;28;20449;-79
2022/10/22 08:33:52;;;;;;;19.00;8.90;;;14.20;99.90;;;;;;5052574;28;20060;-83
2022/10/22 08:36:18;;;;;;;20.65;9.50;;;14.30;99.90;;;;;;5069360;28;20047;-81
2022/10/22 08:38:43;;;;;;;16.48;8.75;;;14.30;99.90;;;;;;5047409;28;20395;-88
2022/10/22 08:41:11;;;;;;;17.52;9.05;;;14.30;99.90;;;;;;5068834;28;20376;-88
2022/10/22 08:43:43;;;;;;;18.52;9.18;;;14.30;99.90;;;;;;5069629;28;20583;-88
2022/10/22 08:46:30;;;;;;;16.38;8.88;;;14.30;99.90;;;;;;5067772;28;20044;-88
2022/10/22 08:48:59;;;;;;;14.55;9.27;;;14.40;99.90;;;;;;5055557;28;20044;-86
2022/10/22 08:51:34;;;;;;;19.40;9.00;;;14.40;99.90;;;;;;5048953;28;20124;-88
2022/10/22 08:54:23;;;;;;;16.38;8.68;;;14.50;99.90;;;;;;5070249;28;20032;-87
2022/10/22 08:57:08;;;;;;;14.55;8.73;;;14.50;99.90;;;;;;5068043;28;20059;-88
2022/10/22 08:59:49;;;;;;;20.60;8.43;;;14.60;99.90;;;;;;5049116;28;20127;-86
2022/10/22 09:02:43;;;;;;;16.88;8.40;;;14.60;99.90;;;;;;5075232;28;20321;-88
2022/10/22 09:05:39;;;;;;;19.45;8.95;;;14.60;99.90;;;;;;5043333;28;20052;-78
2022/10/22 09:08:09;;;;;;;15.48;7.97;;;14.60;99.90;;;;;;5061419;28;20036;-80
2022/10/22 09:10:38;;;;;;;18.38;8.02;;;14.70;99.90;;;;;;5060808;28;20067;-77
2022/10/22 09:13:04;;;;;;;14.77;8.02;;;14.70;99.90;;;;;;5051019;28;20372;-78
2022/10/22 09:15:30;;;;;;;17.05;7.40;;;14.80;99.90;;;;;;5064936;28;20055;-83
2022/10/22 09:18:25;;;;;;;14.95;7.22;;;14.80;99.90;;;;;;5070323;28;20045;-80
2022/10/22 09:21:12;;;;;;;14.70;6.60;;;14.80;99.90;;;;;;5069761;28;20656;-81
2022/10/22 09:23:47;;;;;;;15.27;6.85;;;14.90;99.90;;;;;;5046310;28;20041;-82
2022/10/22 09:26:15;;;;;;;12.98;6.43;;;14.90;99.90;;;;;;5049349;28;20541;-78
2022/10/22 09:28:41;;;;;;;12.77;6.53;;;15.00;99.90;;;;;;5048628;28;20140;-78
2022/10/22 09:31:12;;;;;;;15.82;6.65;;;15.10;99.90;;;;;;5067622;28;20548;-81
2022/10/22 09:33:39;;;;;;;14.75;6.55;;;15.10;99.90;;;;;;5066816;28;20098;-82
2022/10/22 09:36:06;;;;;;;14.75;7.13;;;15.10;99.90;;;;;;5066781;28;20387;-82
2022/10/22 09:38:59;;;;;;;11.32;6.13;;;15.10;99.90;;;;;;5070934;28;20044;-84
2022/10/22 09:41:30;;;;;;;15.48;6.75;;;15.20;99.90;;;;;;5060686;28;20051;-83
2022/10/22 09:43:57;;;;;;;15.90;6.60;;;15.20;99.90;;;;;;5066368;28;20052;-83
2022/10/22 09:46:27;;;;;;;19.90;7.35;;;15.30;99.90;;;;;;5068327;28;20507;-83
2022/10/22 09:48:58;;;;;;;16.50;6.30;;;15.30;99.90;;;;;;5069307;28;20057;-83
2022/10/22 09:51:55;;;;;;;14.80;6.22;;;15.30;99.90;;;;;;5050719;28;20051;-82
2022/10/22 09:54:21;;;;;;;;;;;15.40;99.90;;;;;;5060416;28;20076;-85
2022/10/22 09:56:54;;;;;;;12.23;6.50;;;15.30;99.90;;;;;;5065603;28;19963;-85
2022/10/22 09:59:36;;;;;;;13.98;6.28;;;15.40;99.90;;;;;;5063444;28;20045;-79
2022/10/22 10:02:13;;;;;;;15.63;6.10;;;15.40;99.90;;;;;;5044739;28;20045;-81
2022/10/22 10:04:44;;;;;;;14.55;6.45;;;15.40;99.90;;;;;;5064031;28;20371;-79
2022/10/22 10:07:35;;;;;;;13.77;6.22;;;15.40;99.90;;;;;;5066933;28;20040;-84
2022/10/22 10:10:01;;;;;;;14.75;5.78;;;15.50;99.90;;;;;;5061426;28;20041;-81
2022/10/22 10:12:39;;;;;;;14.55;5.97;;;15.50;99.90;;;;;;5061222;28;20373;-79
2022/10/22 10:15:35;;;;;;;13.15;6.25;;;15.50;99.90;;;;;;5061640;28;20048;-74
2022/10/22 10:18:19;;;;;;;22.40;9.55;;;15.50;99.90;;;;;;5041833;28;20495;-74
2022/10/22 10:21:38;;;;;;;15.27;5.78;;;15.50;99.90;;;;;;5042019;28;20058;-77
2022/10/22 10:24:39;;;;;;;15.90;6.10;;;15.50;99.90;;;;;;5008068;28;20575;-76
2022/10/22 10:27:29;;;;;;;15.80;7.43;;;15.50;99.90;;;;;;5022516;28;20056;-79
2022/10/22 10:30:04;;;;;;;15.93;5.40;;;15.50;99.90;;;;;;5030195;28;20582;-83
2022/10/22 10:32:41;;;;;;;12.05;5.68;;;15.40;99.90;;;;;;5056819;28;20483;-80
2022/10/22 10:35:12;;;;;;;19.98;6.68;;;15.40;99.90;;;;;;5064655;28;20033;-75
2022/10/22 10:37:45;;;;;;;13.40;5.50;;;15.40;99.90;;;;;;5059093;28;20047;-74
2022/10/22 10:40:52;;;;;;;17.45;5.80;;;15.40;99.90;;;;;;5049183;28;20135;-74
2022/10/22 10:43:32;;;;;;;14.77;5.57;;;15.40;99.90;;;;;;4989977;28;20060;-74
2022/10/22 10:46:45;;;;;;;12.55;5.47;;;15.40;99.90;;;;;;4989029;28;20065;-73
2022/10/22 10:49:26;;;;;;;13.68;5.95;;;15.40;99.90;;;;;;4987285;28;20457;-75
2022/10/22 10:52:26;;;;;;;14.18;6.00;;;15.40;99.90;;;;;;5047724;28;20049;-74
2022/10/22 10:55:13;;;;;;;18.85;5.85;;;15.40;99.90;;;;;;5047274;28;20051;-74
2022/10/22 10:57:39;;;;;;;14.77;6.43;;;15.50;99.90;;;;;;5050477;28;20048;-74
2022/10/22 11:00:16;;;;;;;16.63;6.03;;;15.50;99.90;;;;;;5068284;28;20123;-72
2022/10/22 11:03:04;;;;;;;;;;;15.50;99.90;;;;;;5050571;28;20044;-75
2022/10/22 11:05:47;;;;;;;14.68;6.30;;;15.50;99.90;;;;;;5065869;28;20717;-74
2022/10/22 11:08:30;;;;;;;11.98;6.00;;;15.50;99.90;;;;;;5064434;28;20059;-75
2022/10/22 11:11:10;;;;;;;15.15;6.30;;;15.60;99.90;;;;;;5050129;28;20083;-74
2022/10/22 11:13:59;;;;;;;13.90;5.63;;;15.60;99.90;;;;;;5067449;28;20052;-75
2022/10/22 11:16:46;;;;;;;15.00;6.82;;;15.70;99.90;;;;;;5049382;28;20045;-75
2022/10/22 11:19:26;;;;;;;14.52;6.40;;;15.70;99.90;;;;;;5067702;28;20507;-73
2022/10/22 11:22:04;;;;;;;12.85;6.35;;;15.70;99.90;;;;;;5047082;28;20040;-74
2022/10/22 11:24:50;;;;;;;15.10;6.80;;;15.60;99.90;;;;;;5048022;28;20052;-76
2022/10/22 11:27:38;;;;;;;15.27;7.05;;;15.60;99.90;;;;;;5045972;28;20083;-79
2022/10/22 11:30:16;;;;;;;14.75;6.57;;;15.60;99.90;;;;;;5061017;28;20053;-77
2022/10/22 11:32:46;;;;;;;16.77;7.80;;;15.60;99.90;;;;;;5056845;28;20344;-79
2022/10/22 11:35:15;;;;;;;15.25;8.40;;;15.60;99.90;;;;;;5063250;28;20040;-81
2022/10/22 11:37:43;;;;;;;19.33;9.02;;;15.50;99.90;;;;;;5046490;28;20051;-80
2022/10/22 11:40:20;;;;;;;22.13;12.60;;;15.60;99.90;;;;;;5066080;28;20050;-77
2022/10/22 11:42:53;;;;;;;14.20;7.57;;;15.60;99.90;;;;;;5049458;28;20044;-79
2022/10/22 11:45:34;;;;;;;16.23;8.48;;;15.70;99.90;;;;;;5063550;28;20036;-80
2022/10/22 11:48:09;;;;;;;15.32;7.80;;;15.80;99.90;;;;;;5067628;28;20044;-81
2022/10/22 11:50:43;;;;;;;17.73;9.50;;;15.80;99.90;;;;;;5057636;28;20032;-82
2022/10/22 11:53:11;;;;;;;12.23;7.53;;;15.80;99.90;;;;;;5064116;28;20048;-82
2022/10/22 11:55:44;;;;;;;14.52;8.65;;;15.90;99.90;;;;;;5051760;28;20048;-81
2022/10/22 11:58:28;;;;;;;16.30;8.20;;;15.90;99.90;;;;;;5069162;28;20098;-89
2022/10/22 12:01:16;;;;;;;13.85;7.38;;;15.90;99.90;;;;;;5071299;28;20067;-86
2022/10/22 12:03:50;;;;;;;13.38;6.95;;;15.90;99.90;;;;;;5045691;28;20040;-86
2022/10/22 12:06:19;;;;;;;16.77;8.02;;;15.90;99.90;;;;;;5069600;28;20049;-87
2022/10/22 12:08:48;;;;;;;13.65;7.82;;;15.90;99.90;;;;;;5047405;28;20397;-92
2022/10/22 12:11:18;;;;;;;16.55;7.57;;;15.90;99.90;;;;;;5080077;28;20052;-88
2022/10/22 12:14:18;;;;;;;11.55;7.00;;;15.80;99.90;;;;;;5049542;28;20052;-82
2022/10/22 12:17:02;;;;;;;16.30;7.03;;;15.90;99.90;;;;;;5062239;28;20079;-82
2022/10/22 12:19:47;;;;;;;15.65;8.13;;;15.90;99.90;;;;;;5059446;28;20040;-77
2022/10/22 12:22:20;;;;;;;11.63;7.25;;;16.00;99.90;;;;;;5061876;28;20082;-84
2022/10/22 12:24:48;;;;;;;12.27;7.15;;;16.00;99.90;;;;;;5066646;28;20040;-82
2022/10/22 12:27:20;;;;;;;13.10;6.90;;;16.10;99.90;;;;;;5071986;28;20052;-77
2022/10/22 12:29:46;;;;;;;12.70;6.53;;;16.10;99.90;;;;;;5053987;28;20049;-79
2022/10/22 12:32:15;;;;;;;16.45;7.38;;;16.10;99.90;;;;;;5069255;28;20379;-82
2022/10/22 12:34:48;;;;;;;11.57;6.85;;;16.20;99.90;;;;;;5069065;28;20041;-84
2022/10/22 12:37:15;;;;;;;15.15;6.50;;;16.30;99.90;;;;;;5048412;28;20037;-81
2022/10/22 12:39:41;;;;;;;10.38;5.97;;;16.30;99.90;;;;;;5059537;28;20040;-79
2022/10/22 12:42:12;;;;;;;14.80;5.88;;;16.30;99.90;;;;;;5042351;28;20068;-82
2022/10/22 12:44:38;;;;;;;13.35;5.70;;;16.40;99.90;;;;;;5043226;28;20386;-77
2022/10/22 12:47:05;;;;;;;13.45;6.25;;;16.40;99.90;;;;;;5064653;28;20040;-85
2022/10/22 12:49:37;;;;;;;10.73;5.40;;;16.40;99.90;;;;;;5060081;28;21646;-81
2022/10/22 12:52:06;;;;;;;11.27;6.05;;;16.40;99.90;;;;;;5066626;28;20141;-79
2022/10/22 12:54:33;;;;;;;11.98;5.40;;;16.40;99.90;;;;;;5059877;28;20052;-81
2022/10/22 12:56:59;;;;;;;;;;;16.40;99.90;;;;;;5062284;28;20036;-77